Wetterdaten: Woche 26.09.11 - 02.10.11 (KW39)
Datum Zeit Temp. A. Feuchte A. Luftdruck Regen Wind Richtung Taupunkt Windchill Windben
26.09.2011 00:00 11,9 C 82 % 1022,8 hPa 0,0 l/m 0,0 km/h N 9,0 C 11,9 C 0,0 km/h
26.09.2011 01:00 11,4 C 82 % 1022,9 hPa 0,0 l/m 0,0 km/h N 8,5 C 11,4 C 0,0 km/h
26.09.2011 02:00 11,0 C 82 % 1023,0 hPa 0,0 l/m 0,0 km/h N 8,0 C 11,0 C 0,0 km/h
26.09.2011 03:00 10,6 C 82 % 1022,9 hPa 0,0 l/m 0,0 km/h N 7,7 C 10,6 C 0,0 km/h
26.09.2011 04:00 10,4 C 82 % 1023,1 hPa 0,0 l/m 0,0 km/h N 7,4 C 10,4 C 0,0 km/h
26.09.2011 05:00 9,9 C 82 % 1023,3 hPa 0,0 l/m 0,0 km/h N 7,0 C 9,9 C 0,0 km/h
26.09.2011 06:00 9,6 C 82 % 1023,8 hPa 0,0 l/m 0,0 km/h N 6,6 C 9,6 C 0,0 km/h
26.09.2011 07:00 9,5 C 81 % 1024,5 hPa 0,0 l/m 0,0 km/h N 6,4 C 9,5 C 0,0 km/h
26.09.2011 08:00 10,8 C 79 % 1025,1 hPa 0,0 l/m 0,0 km/h N 7,2 C 10,8 C 0,0 km/h
26.09.2011 09:00 12,6 C 77 % 1025,6 hPa 0,0 l/m 0,0 km/h N 8,7 C 12,6 C 0,0 km/h
26.09.2011 10:00 14,1 C 77 % 1025,9 hPa 0,0 l/m 0,0 km/h N 10,1 C 14,1 C 0,0 km/h
26.09.2011 11:00 15,5 C 81 % 1025,9 hPa 0,0 l/m 0,0 km/h N 12,2 C 15,5 C 0,0 km/h
26.09.2011 12:00 17,7 C 78 % 1025,7 hPa 0,0 l/m 0,4 km/h N 13,8 C 17,7 C 2,8 km/h
26.09.2011 13:00 19,6 C 70 % 1025,3 hPa 0,0 l/m 0,4 km/h N 13,9 C 19,6 C 3,6 km/h
26.09.2011 14:00 21,2 C 63 % 1024,8 hPa 0,0 l/m 1,1 km/h S-SW 13,9 C 21,2 C 6,8 km/h
26.09.2011 15:00 22,7 C 59 % 1024,3 hPa 0,0 l/m 1,3 km/h S-SW 14,2 C 22,7 C 7,6 km/h
26.09.2011 16:00 23,0 C 59 % 1024,1 hPa 0,0 l/m 0,4 km/h N 14,6 C 23,0 C 3,6 km/h
26.09.2011 17:00 22,7 C 60 % 1024,1 hPa 0,0 l/m 0,3 km/h N 14,5 C 22,7 C 4,8 km/h
26.09.2011 18:00 21,5 C 63 % 1024,5 hPa 0,0 l/m 0,0 km/h N 14,1 C 21,5 C 0,0 km/h
26.09.2011 19:00 18,8 C 71 % 1025,0 hPa 0,0 l/m 0,0 km/h N 13,3 C 18,8 C 0,8 km/h
26.09.2011 20:00 16,5 C 77 % 1025,5 hPa 0,0 l/m 0,0 km/h N 12,3 C 16,5 C 0,4 km/h
26.09.2011 21:00 14,8 C 79 % 1025,8 hPa 0,0 l/m 0,0 km/h N 11,3 C 14,8 C 0,0 km/h
26.09.2011 22:00 14,0 C 81 % 1026,0 hPa 0,0 l/m 0,0 km/h N 10,8 C 14,0 C 0,4 km/h
26.09.2011 23:00 13,4 C 82 % 1026,1 hPa 0,0 l/m 0,0 km/h N 10,3 C 13,4 C 0,4 km/h
27.09.2011 00:00 13,1 C 82 % 1026,3 hPa 0,0 l/m 0,0 km/h N 10,1 C 13,1 C 0,0 km/h
27.09.2011 01:00 12,6 C 82 % 1026,4 hPa 0,0 l/m 0,0 km/h N 9,6 C 12,6 C 0,4 km/h
27.09.2011 02:00 11,9 C 83 % 1026,3 hPa 0,0 l/m 0,0 km/h N 9,0 C 11,9 C 0,0 km/h
27.09.2011 03:00 11,4 C 83 % 1026,3 hPa 0,0 l/m 0,0 km/h N 8,5 C 11,4 C 0,0 km/h
27.09.2011 04:00 10,8 C 82 % 1026,5 hPa 0,0 l/m 0,0 km/h N 7,9 C 10,8 C 0,0 km/h
27.09.2011 05:00 10,4 C 82 % 1026,8 hPa 0,0 l/m 0,0 km/h N 7,5 C 10,4 C 0,0 km/h
27.09.2011 06:00 10,5 C 82 % 1027,2 hPa 0,0 l/m 0,0 km/h N 7,4 C 10,5 C 0,0 km/h
27.09.2011 07:00 10,4 C 82 % 1027,9 hPa 0,0 l/m 0,0 km/h N 7,4 C 10,4 C 0,0 km/h
27.09.2011 08:00 11,0 C 80 % 1028,2 hPa 0,0 l/m 0,0 km/h N 7,6 C 11,0 C 0,0 km/h
27.09.2011 09:00 12,9 C 78 % 1028,5 hPa 0,0 l/m 0,0 km/h N 9,2 C 12,9 C 0,0 km/h
27.09.2011 10:00 14,9 C 79 % 1028,6 hPa 0,0 l/m 0,0 km/h N 11,2 C 14,9 C 0,0 km/h
27.09.2011 11:00 16,9 C 81 % 1028,5 hPa 0,0 l/m 0,1 km/h N 13,6 C 16,9 C 1,6 km/h
27.09.2011 12:00 19,6 C 72 % 1028,3 hPa 0,0 l/m 0,1 km/h N 14,3 C 19,6 C 2,0 km/h
27.09.2011 13:00 21,5 C 63 % 1028,0 hPa 0,0 l/m 0,3 km/h N 14,1 C 21,5 C 3,6 km/h
27.09.2011 14:00 22,6 C 57 % 1027,5 hPa 0,0 l/m 0,7 km/h N-NO 13,7 C 22,6 C 4,0 km/h
27.09.2011 15:00 23,1 C 52 % 1027,2 hPa 0,0 l/m 0,9 km/h N 12,7 C 23,1 C 4,0 km/h
27.09.2011 16:00 23,6 C 49 % 1026,8 hPa 0,0 l/m 1,1 km/h W-SW 12,1 C 23,6 C 4,8 km/h
27.09.2011 17:00 22,9 C 50 % 1026,9 hPa 0,0 l/m 1,7 km/h NW 11,8 C 22,9 C 5,2 km/h
27.09.2011 18:00 21,7 C 57 % 1027,1 hPa 0,0 l/m 0,1 km/h N 12,8 C 21,7 C 0,8 km/h
27.09.2011 19:00 18,8 C 66 % 1027,3 hPa 0,0 l/m 0,0 km/h N 12,3 C 18,8 C 1,2 km/h
27.09.2011 20:00 17,0 C 72 % 1027,6 hPa 0,0 l/m 0,2 km/h N 11,9 C 17,0 C 4,0 km/h
27.09.2011 21:00 16,5 C 75 % 1027,7 hPa 0,0 l/m 0,2 km/h N 12,0 C 16,5 C 4,4 km/h
27.09.2011 22:00 15,8 C 76 % 1027,9 hPa 0,0 l/m 0,1 km/h N 11,5 C 15,8 C 2,4 km/h
27.09.2011 23:00 14,5 C 79 % 1028,1 hPa 0,0 l/m 0,0 km/h N 10,8 C 14,5 C 0,0 km/h
28.09.2011 00:00 13,6 C 80 % 1028,1 hPa 0,0 l/m 0,0 km/h N 10,3 C 13,6 C 0,4 km/h
28.09.2011 01:00 13,2 C 82 % 1028,1 hPa 0,0 l/m 0,0 km/h N 10,2 C 13,2 C 0,0 km/h
28.09.2011 02:00 13,2 C 82 % 1028,4 hPa 0,0 l/m 0,0 km/h N 10,2 C 13,2 C 0,0 km/h
28.09.2011 03:00 13,3 C 82 % 1028,1 hPa 0,0 l/m 0,1 km/h N 10,2 C 13,3 C 1,6 km/h
28.09.2011 04:00 13,9 C 82 % 1028,4 hPa 0,0 l/m 0,0 km/h N 10,8 C 13,9 C 0,4 km/h
28.09.2011 05:00 13,3 C 82 % 1028,6 hPa 0,0 l/m 0,0 km/h N 10,3 C 13,3 C 0,0 km/h
28.09.2011 06:00 14,0 C 81 % 1028,9 hPa 0,0 l/m 0,0 km/h N 10,8 C 14,0 C 0,0 km/h
28.09.2011 07:00 14,5 C 81 % 1029,4 hPa 0,0 l/m 0,0 km/h N 11,3 C 14,5 C 0,0 km/h
28.09.2011 08:00 15,4 C 81 % 1029,9 hPa 0,0 l/m 1,1 km/h W-NW 12,2 C 15,4 C 5,2 km/h
28.09.2011 09:00 16,6 C 82 % 1030,3 hPa 0,0 l/m 2,6 km/h N-NW 13,5 C 16,6 C 7,6 km/h
28.09.2011 10:00 17,8 C 80 % 1030,5 hPa 0,0 l/m 2,8 km/h N-NW 14,3 C 17,8 C 8,4 km/h
28.09.2011 11:00 18,7 C 77 % 1030,6 hPa 0,0 l/m 3,0 km/h N-NO 14,5 C 18,7 C 9,7 km/h
28.09.2011 12:00 19,9 C 72 % 1030,4 hPa 0,0 l/m 2,6 km/h N 14,7 C 19,9 C 8,0 km/h
28.09.2011 13:00 20,5 C 70 % 1029,9 hPa 0,0 l/m 2,6 km/h N-NW 14,9 C 20,5 C 8,5 km/h
28.09.2011 14:00 20,8 C 70 % 1029,3 hPa 0,0 l/m 3,8 km/h N 15,0 C 20,8 C 11,3 km/h
28.09.2011 15:00 21,2 C 67 % 1028,8 hPa 0,0 l/m 4,5 km/h NW 14,7 C 21,2 C 11,3 km/h
28.09.2011 16:00 21,2 C 65 % 1028,5 hPa 0,0 l/m 4,1 km/h N-NW 14,3 C 21,2 C 9,7 km/h
28.09.2011 17:00 20,8 C 64 % 1028,3 hPa 0,0 l/m 3,3 km/h N 13,7 C 20,8 C 8,0 km/h
28.09.2011 18:00 20,0 C 63 % 1028,3 hPa 0,0 l/m 0,9 km/h NW 12,8 C 20,0 C 4,4 km/h
28.09.2011 19:00 18,0 C 71 % 1028,5 hPa 0,0 l/m 0,0 km/h N 12,6 C 18,0 C 1,2 km/h
28.09.2011 20:00 15,8 C 74 % 1029,1 hPa 0,0 l/m 0,0 km/h N 11,2 C 15,8 C 0,0 km/h
28.09.2011 21:00 13,9 C 76 % 1029,4 hPa 0,0 l/m 0,0 km/h N 9,8 C 13,9 C 1,2 km/h
28.09.2011 22:00 12,9 C 77 % 1029,5 hPa 0,0 l/m 0,0 km/h N 8,9 C 12,9 C 0,4 km/h
28.09.2011 23:00 12,0 C 76 % 1029,8 hPa 0,0 l/m 0,0 km/h N 7,9 C 12,0 C 0,0 km/h
29.09.2011 00:00 11,3 C 76 % 1029,8 hPa 0,0 l/m 0,1 km/h N 7,2 C 11,3 C 1,2 km/h
29.09.2011 01:00 11,3 C 78 % 1029,7 hPa 0,0 l/m 0,0 km/h N 7,5 C 11,3 C 2,0 km/h
29.09.2011 02:00 10,5 C 76 % 1029,5 hPa 0,0 l/m 0,0 km/h N 6,4 C 10,5 C 0,8 km/h
29.09.2011 03:00 9,7 C 77 % 1029,3 hPa 0,0 l/m 0,0 km/h N 5,9 C 9,7 C 1,2 km/h
29.09.2011 04:00 9,7 C 78 % 1029,4 hPa 0,0 l/m 0,1 km/h N 6,0 C 9,7 C 3,6 km/h
29.09.2011 05:00 9,6 C 77 % 1029,3 hPa 0,0 l/m 0,1 km/h N 5,7 C 9,6 C 2,4 km/h
29.09.2011 06:00 9,2 C 78 % 1029,1 hPa 0,0 l/m 0,0 km/h N 5,6 C 9,2 C 1,6 km/h
29.09.2011 07:00 9,1 C 80 % 1029,4 hPa 0,0 l/m 0,1 km/h N 5,8 C 9,1 C 2,8 km/h
29.09.2011 08:00 10,6 C 78 % 1029,6 hPa 0,0 l/m 0,1 km/h N 7,0 C 10,6 C 2,4 km/h
29.09.2011 09:00 12,8 C 70 % 1029,9 hPa 0,0 l/m 0,4 km/h N-NW 7,3 C 12,8 C 2,8 km/h
29.09.2011 10:00 15,3 C 60 % 1030,1 hPa 0,0 l/m 1,4 km/h N-NW 7,5 C 15,3 C 6,0 km/h
29.09.2011 11:00 16,8 C 55 % 1030,1 hPa 0,0 l/m 1,5 km/h O 7,8 C 16,8 C 6,8 km/h
29.09.2011 12:00 18,4 C 48 % 1029,6 hPa 0,0 l/m 2,1 km/h N-NO 7,2 C 18,4 C 7,2 km/h
29.09.2011 13:00 19,8 C 45 % 1029,2 hPa 0,0 l/m 2,9 km/h N-NO 7,4 C 19,8 C 8,0 km/h
29.09.2011 14:00 20,6 C 44 % 1028,7 hPa 0,0 l/m 2,0 km/h NW 7,7 C 20,6 C 6,8 km/h
29.09.2011 15:00 20,8 C 46 % 1028,2 hPa 0,0 l/m 2,9 km/h NW 8,9 C 20,8 C 7,6 km/h
29.09.2011 16:00 21,2 C 48 % 1027,9 hPa 0,0 l/m 2,7 km/h N 9,6 C 21,2 C 7,6 km/h
29.09.2011 17:00 21,0 C 48 % 1027,8 hPa 0,0 l/m 2,3 km/h N-NW 9,5 C 21,0 C 7,2 km/h
29.09.2011 18:00 20,0 C 51 % 1027,7 hPa 0,0 l/m 0,2 km/h N 9,6 C 20,0 C 2,0 km/h
29.09.2011 19:00 18,0 C 56 % 1027,8 hPa 0,0 l/m 0,0 km/h N 9,2 C 18,0 C 1,2 km/h
29.09.2011 20:00 15,6 C 65 % 1028,0 hPa 0,0 l/m 0,0 km/h N 8,9 C 15,6 C 2,0 km/h
29.09.2011 21:00 14,6 C 69 % 1027,9 hPa 0,0 l/m 0,0 km/h N 8,9 C 14,6 C 0,0 km/h
29.09.2011 22:00 13,5 C 73 % 1028,1 hPa 0,0 l/m 0,0 km/h N 8,7 C 13,5 C 1,6 km/h
29.09.2011 23:00 13,3 C 75 % 1028,1 hPa 0,0 l/m 0,0 km/h N 8,9 C 13,3 C 1,6 km/h
30.09.2011 00:00 13,8 C 74 % 1028,0 hPa 0,0 l/m 0,2 km/h N 9,2 C 13,8 C 1,6 km/h
30.09.2011 01:00 13,7 C 74 % 1028,0 hPa 0,0 l/m 0,2 km/h N 9,1 C 13,7 C 3,2 km/h
30.09.2011 02:00 13,9 C 75 % 1028,0 hPa 0,0 l/m 0,3 km/h N 9,5 C 13,9 C 3,6 km/h
30.09.2011 03:00 13,4 C 76 % 1028,0 hPa 0,0 l/m 0,1 km/h N 9,2 C 13,4 C 2,4 km/h
30.09.2011 04:00 12,8 C 78 % 1027,9 hPa 0,0 l/m 0,1 km/h N 9,0 C 12,8 C 2,8 km/h
30.09.2011 05:00 12,5 C 80 % 1027,8 hPa 0,0 l/m 0,1 km/h N 9,1 C 12,5 C 3,6 km/h
30.09.2011 06:00 12,6 C 80 % 1027,8 hPa 0,0 l/m 0,3 km/h N 9,3 C 12,6 C 5,6 km/h
30.09.2011 07:00 12,6 C 80 % 1028,1 hPa 0,0 l/m 0,2 km/h N 9,3 C 12,6 C 3,6 km/h
30.09.2011 08:00 13,1 C 81 % 1028,4 hPa 0,0 l/m 0,1 km/h N 9,9 C 13,1 C 2,0 km/h
30.09.2011 09:00 14,8 C 79 % 1028,7 hPa 0,0 l/m 0,5 km/h S 11,1 C 14,8 C 4,8 km/h
30.09.2011 10:00 17,6 C 68 % 1028,6 hPa 0,0 l/m 2,6 km/h N-NW 11,7 C 17,6 C 7,2 km/h
30.09.2011 11:00 19,4 C 60 % 1028,3 hPa 0,0 l/m 2,0 km/h N 11,3 C 19,4 C 7,2 km/h
30.09.2011 12:00 20,9 C 55 % 1028,0 hPa 0,0 l/m 2,8 km/h N-NO 11,4 C 20,9 C 8,9 km/h
30.09.2011 13:00 21,9 C 52 % 1027,4 hPa 0,0 l/m 2,9 km/h N 11,4 C 21,9 C 8,4 km/h
30.09.2011 14:00 22,5 C 51 % 1027,0 hPa 0,0 l/m 3,0 km/h N-NW 11,7 C 22,5 C 7,6 km/h
30.09.2011 15:00 22,7 C 52 % 1026,7 hPa 0,0 l/m 3,2 km/h N-NW 12,2 C 22,7 C 9,3 km/h
30.09.2011 16:00 22,5 C 53 % 1026,4 hPa 0,0 l/m 3,4 km/h N-NW 12,3 C 22,5 C 8,4 km/h
30.09.2011 17:00 22,1 C 54 % 1026,3 hPa 0,0 l/m 1,5 km/h S-SW 12,4 C 22,1 C 5,2 km/h
30.09.2011 18:00 21,3 C 57 % 1026,2 hPa 0,0 l/m 0,1 km/h N 12,5 C 21,3 C 1,2 km/h
30.09.2011 19:00 19,0 C 64 % 1026,4 hPa 0,0 l/m 0,1 km/h N 12,0 C 19,0 C 2,4 km/h
30.09.2011 20:00 16,9 C 70 % 1026,7 hPa 0,0 l/m 0,0 km/h N 11,4 C 16,9 C 0,8 km/h
30.09.2011 21:00 15,7 C 75 % 1027,1 hPa 0,0 l/m 0,0 km/h N 11,2 C 15,7 C 1,6 km/h
30.09.2011 22:00 15,4 C 76 % 1027,1 hPa 0,0 l/m 0,2 km/h N 11,2 C 15,4 C 4,8 km/h
30.09.2011 23:00 15,1 C 78 % 1027,1 hPa 0,0 l/m 0,1 km/h N 11,2 C 15,1 C 3,2 km/h
01.10.2011 00:00 14,1 C 80 % 1027,0 hPa 0,0 l/m 0,1 km/h N 10,6 C 14,1 C 2,4 km/h
01.10.2011 01:00 13,5 C 81 % 1026,9 hPa 0,0 l/m 0,0 km/h N 10,3 C 13,5 C 2,0 km/h
01.10.2011 02:00 13,1 C 82 % 1026,9 hPa 0,0 l/m 0,1 km/h N 10,0 C 13,1 C 2,8 km/h
01.10.2011 03:00 12,3 C 82 % 1026,8 hPa 0,0 l/m 0,0 km/h N 9,3 C 12,3 C 1,6 km/h
01.10.2011 04:00 11,7 C 82 % 1026,7 hPa 0,0 l/m 0,0 km/h N 8,8 C 11,7 C 1,2 km/h
01.10.2011 05:00 11,5 C 82 % 1026,6 hPa 0,0 l/m 0,0 km/h N 8,5 C 11,5 C 0,4 km/h
01.10.2011 06:00 11,0 C 82 % 1026,7 hPa 0,0 l/m 0,0 km/h N 8,1 C 11,0 C 0,8 km/h
01.10.2011 07:00 10,9 C 82 % 1026,9 hPa 0,0 l/m 0,0 km/h N 8,0 C 10,9 C 1,2 km/h
01.10.2011 08:00 11,6 C 81 % 1027,1 hPa 0,0 l/m 0,1 km/h N 8,4 C 11,6 C 2,8 km/h
01.10.2011 09:00 13,4 C 80 % 1027,3 hPa 0,0 l/m 0,2 km/h N 10,1 C 13,4 C 1,6 km/h
01.10.2011 10:00 15,1 C 81 % 1027,3 hPa 0,0 l/m 0,1 km/h N 12,0 C 15,1 C 2,0 km/h
01.10.2011 11:00 17,0 C 76 % 1027,1 hPa 0,0 l/m 0,2 km/h N 12,6 C 17,0 C 2,8 km/h
01.10.2011 12:00 19,4 C 67 % 1026,7 hPa 0,0 l/m 0,7 km/h N 13,1 C 19,4 C 4,0 km/h
01.10.2011 13:00 21,3 C 58 % 1026,1 hPa 0,0 l/m 0,7 km/h N 12,7 C 21,3 C 4,8 km/h
01.10.2011 14:00 22,6 C 53 % 1025,4 hPa 0,0 l/m 1,0 km/h N-NO 12,4 C 22,6 C 5,2 km/h
01.10.2011 15:00 23,5 C 50 % 1025,1 hPa 0,0 l/m 1,6 km/h N-NO 12,4 C 23,5 C 6,0 km/h
01.10.2011 16:00 23,8 C 49 % 1024,8 hPa 0,0 l/m 1,0 km/h N 12,4 C 23,8 C 5,2 km/h
01.10.2011 17:00 23,4 C 47 % 1024,6 hPa 0,0 l/m 0,1 km/h N 11,5 C 23,4 C 1,6 km/h
01.10.2011 18:00 21,7 C 54 % 1024,8 hPa 0,0 l/m 0,0 km/h N 12,0 C 21,7 C 0,8 km/h
01.10.2011 19:00 18,5 C 64 % 1024,9 hPa 0,0 l/m 0,0 km/h N 11,5 C 18,5 C 0,4 km/h
01.10.2011 20:00 16,4 C 71 % 1025,1 hPa 0,0 l/m 0,1 km/h N 11,1 C 16,4 C 3,6 km/h
01.10.2011 21:00 16,3 C 72 % 1025,1 hPa 0,0 l/m 0,2 km/h N 11,3 C 16,3 C 4,4 km/h
01.10.2011 22:00 16,2 C 72 % 1025,1 hPa 0,0 l/m 0,3 km/h N 11,1 C 16,2 C 4,8 km/h
01.10.2011 23:00 15,5 C 72 % 1025,5 hPa 0,0 l/m 0,1 km/h N 10,5 C 15,5 C 2,8 km/h
02.10.2011 00:00 14,0 C 77 % 1025,6 hPa 0,0 l/m 0,1 km/h N 9,9 C 14,0 C 2,0 km/h
02.10.2011 01:00 13,8 C 79 % 1025,4 hPa 0,0 l/m 0,1 km/h N 10,1 C 13,8 C 3,6 km/h
02.10.2011 02:00 13,7 C 78 % 1025,3 hPa 0,0 l/m 0,1 km/h N 9,9 C 13,7 C 2,8 km/h
02.10.2011 03:00 13,2 C 78 % 1025,2 hPa 0,0 l/m 0,1 km/h N 9,5 C 13,2 C 2,8 km/h
02.10.2011 04:00 12,9 C 79 % 1025,0 hPa 0,0 l/m 0,1 km/h N 9,3 C 12,9 C 3,2 km/h
02.10.2011 05:00 12,8 C 80 % 1024,9 hPa 0,0 l/m 0,1 km/h N 9,3 C 12,8 C 3,2 km/h
02.10.2011 06:00 12,6 C 79 % 1025,1 hPa 0,0 l/m 0,1 km/h N 9,1 C 12,6 C 3,6 km/h
02.10.2011 07:00 12,8 C 79 % 1025,3 hPa 0,0 l/m 0,1 km/h N 9,2 C 12,8 C 3,6 km/h
02.10.2011 08:00 13,7 C 78 % 1025,5 hPa 0,0 l/m 0,3 km/h N 9,9 C 13,7 C 4,8 km/h
02.10.2011 09:00 15,6 C 75 % 1025,7 hPa 0,0 l/m 0,3 km/h N 11,2 C 15,6 C 4,0 km/h
02.10.2011 10:00 17,5 C 70 % 1025,4 hPa 0,0 l/m 1,6 km/h N-NO 11,9 C 17,5 C 7,6 km/h
02.10.2011 11:00 19,7 C 62 % 1025,3 hPa 0,0 l/m 2,6 km/h N-NW 12,2 C 19,7 C 8,0 km/h
02.10.2011 12:00 21,2 C 57 % 1025,0 hPa 0,0 l/m 3,8 km/h NW 12,2 C 21,2 C 8,8 km/h
02.10.2011 13:00 22,0 C 53 % 1024,3 hPa 0,0 l/m 3,7 km/h NW 11,9 C 22,0 C 10,5 km/h
02.10.2011 14:00 22,5 C 48 % 1023,8 hPa 0,0 l/m 4,3 km/h N-NW 11,0 C 22,5 C 11,3 km/h
02.10.2011 15:00 22,9 C 48 % 1023,3 hPa 0,0 l/m 4,6 km/h NW 11,4 C 22,9 C 10,4 km/h
02.10.2011 16:00 23,0 C 49 % 1022,9 hPa 0,0 l/m 4,2 km/h NW 11,7 C 23,0 C 10,1 km/h
02.10.2011 17:00 22,6 C 51 % 1022,9 hPa 0,0 l/m 2,1 km/h NW 11,8 C 22,6 C 6,0 km/h
02.10.2011 18:00 21,2 C 57 % 1022,8 hPa 0,0 l/m 0,0 km/h N 12,3 C 21,2 C 0,4 km/h
02.10.2011 19:00 18,1 C 65 % 1023,0 hPa 0,0 l/m 0,0 km/h N 11,3 C 18,1 C 1,6 km/h
02.10.2011 20:00 15,8 C 71 % 1023,3 hPa 0,0 l/m 0,0 km/h N 10,5 C 15,8 C 0,4 km/h
02.10.2011 21:00 14,5 C 78 % 1023,5 hPa 0,0 l/m 0,0 km/h N 10,7 C 14,5 C 0,4 km/h
02.10.2011 22:00 13,3 C 80 % 1023,7 hPa 0,0 l/m 0,0 km/h N 9,9 C 13,3 C 0,8 km/h
02.10.2011 23:00 12,5 C 82 % 1023,8 hPa 0,0 l/m 0,0 km/h N 9,5 C 12,5 C 0,0 km/h
Min-Datum _ 29.09.11 29.09.11 02.10.11 - 26.09.11 - 29.09.11 29.09.11 26.09.11
_ Min-Zeit 07:15 13:45 18:15 - 00:00 - 07:00 07:00 00:00
Minimum _ 8,9 C 42 % 1022,7 hPa - 0,0 km/h - 5,5 C 8,9 C 0,0 km/h
Max-Datum _ 01.10.11 27.09.11 28.09.11 26.09.11 02.10.11 - 28.09.11 01.10.11 28.09.11
_ Max-Zeit 16:00 02:15 10:30 00:00 15:15 - 14:30 16:00 14:45
Maximum _ 23,8 C 83 % 1030,6 hPa 0,0 l/m 5,5 km/h
NW
- 15,2 C 23,8 C 16,1 km/h
N-NW
Durchschnitt _ 16,1 C 71 % 1026,9 hPa #0,0 l/m 0,7 km/h N-NW 10,5 C 16,1 C 3,2 km/h